sensor_id;sensor_type;location;lat;lon;timestamp;temperature;humidity
21861;DHT22;11095;48.066;8.540;2023-04-03T00:01:36;1.00;99.90
21861;DHT22;11095;48.066;8.540;2023-04-03T00:04:04;1.10;99.90
21861;DHT22;11095;48.066;8.540;2023-04-03T00:06:30;1.00;99.90
21861;DHT22;11095;48.066;8.540;2023-04-03T00:08:55;1.10;99.90
21861;DHT22;11095;48.066;8.540;2023-04-03T00:11:21;1.00;99.90
21861;DHT22;11095;48.066;8.540;2023-04-03T00:13:47;0.90;99.90
21861;DHT22;11095;48.066;8.540;2023-04-03T00:16:13;0.80;99.90
21861;DHT22;11095;48.066;8.540;2023-04-03T00:18:39;0.80;99.90
21861;DHT22;11095;48.066;8.540;2023-04-03T00:21:06;0.80;99.90
21861;DHT22;11095;48.066;8.540;2023-04-03T00:23:33;0.80;99.90
21861;DHT22;11095;48.066;8.540;2023-04-03T00:25:58;0.70;99.90
21861;DHT22;11095;48.066;8.540;2023-04-03T00:28:24;0.80;99.90
21861;DHT22;11095;48.066;8.540;2023-04-03T00:30:51;0.70;99.90
21861;DHT22;11095;48.066;8.540;2023-04-03T00:33:16;0.70;99.90
21861;DHT22;11095;48.066;8.540;2023-04-03T00:35:42;0.70;99.90
21861;DHT22;11095;48.066;8.540;2023-04-03T00:38:08;0.80;99.90
21861;DHT22;11095;48.066;8.540;2023-04-03T00:40:36;0.70;99.90
21861;DHT22;11095;48.066;8.540;2023-04-03T00:43:10;0.70;99.90
21861;DHT22;11095;48.066;8.540;2023-04-03T00:45:43;0.70;99.90
21861;DHT22;11095;48.066;8.540;2023-04-03T00:48:13;0.80;99.90
21861;DHT22;11095;48.066;8.540;2023-04-03T00:50:42;0.80;99.90
21861;DHT22;11095;48.066;8.540;2023-04-03T00:53:12;0.80;99.90
21861;DHT22;11095;48.066;8.540;2023-04-03T00:55:39;0.80;99.90
21861;DHT22;11095;48.066;8.540;2023-04-03T00:58:07;0.80;99.90
21861;DHT22;11095;48.066;8.540;2023-04-03T01:00:34;0.70;99.90
21861;DHT22;11095;48.066;8.540;2023-04-03T01:03:01;0.70;99.90
21861;DHT22;11095;48.066;8.540;2023-04-03T01:05:26;0.70;99.90
21861;DHT22;11095;48.066;8.540;2023-04-03T01:07:52;0.80;99.90
21861;DHT22;11095;48.066;8.540;2023-04-03T01:10:19;0.80;99.90
21861;DHT22;11095;48.066;8.540;2023-04-03T01:12:47;0.70;99.90
21861;DHT22;11095;48.066;8.540;2023-04-03T01:15:17;0.70;99.90
21861;DHT22;11095;48.066;8.540;2023-04-03T01:18:01;0.70;99.90
21861;DHT22;11095;48.066;8.540;2023-04-03T01:25:42;0.70;99.90
21861;DHT22;11095;48.066;8.540;2023-04-03T01:28:11;0.70;99.90
21861;DHT22;11095;48.066;8.540;2023-04-03T01:33:26;0.70;99.90
21861;DHT22;11095;48.066;8.540;2023-04-03T01:35:52;0.60;99.90
21861;DHT22;11095;48.066;8.540;2023-04-03T01:38:17;0.60;99.90
21861;DHT22;11095;48.066;8.540;2023-04-03T01:40:43;0.60;99.90
21861;DHT22;11095;48.066;8.540;2023-04-03T01:43:08;0.70;99.90
21861;DHT22;11095;48.066;8.540;2023-04-03T01:45:34;0.60;99.90
21861;DHT22;11095;48.066;8.540;2023-04-03T01:48:00;0.60;99.90
21861;DHT22;11095;48.066;8.540;2023-04-03T01:50:26;0.60;99.90
21861;DHT22;11095;48.066;8.540;2023-04-03T01:52:51;0.60;99.90
21861;DHT22;11095;48.066;8.540;2023-04-03T01:55:17;0.60;99.90
21861;DHT22;11095;48.066;8.540;2023-04-03T01:57:43;0.60;99.90
21861;DHT22;11095;48.066;8.540;2023-04-03T02:00:09;0.60;99.90
21861;DHT22;11095;48.066;8.540;2023-04-03T02:02:35;0.60;99.90
21861;DHT22;11095;48.066;8.540;2023-04-03T02:05:00;0.70;99.90
21861;DHT22;11095;48.066;8.540;2023-04-03T02:07:26;0.60;99.90
21861;DHT22;11095;48.066;8.540;2023-04-03T02:09:52;0.60;99.90
21861;DHT22;11095;48.066;8.540;2023-04-03T02:12:18;0.60;99.90
21861;DHT22;11095;48.066;8.540;2023-04-03T02:14:44;0.60;99.90
21861;DHT22;11095;48.066;8.540;2023-04-03T02:17:09;0.60;99.90
21861;DHT22;11095;48.066;8.540;2023-04-03T02:19:35;0.60;99.90
21861;DHT22;11095;48.066;8.540;2023-04-03T02:22:05;0.60;99.90
21861;DHT22;11095;48.066;8.540;2023-04-03T02:24:31;0.60;99.90
21861;DHT22;11095;48.066;8.540;2023-04-03T02:26:57;0.60;99.90
21861;DHT22;11095;48.066;8.540;2023-04-03T02:29:23;0.60;99.90
21861;DHT22;11095;48.066;8.540;2023-04-03T02:31:49;0.60;99.90
21861;DHT22;11095;48.066;8.540;2023-04-03T02:34:16;0.60;99.90
21861;DHT22;11095;48.066;8.540;2023-04-03T02:36:41;0.50;99.90
21861;DHT22;11095;48.066;8.540;2023-04-03T02:39:08;0.60;99.90
21861;DHT22;11095;48.066;8.540;2023-04-03T02:41:33;0.60;99.90
21861;DHT22;11095;48.066;8.540;2023-04-03T02:44:02;0.60;99.90
21861;DHT22;11095;48.066;8.540;2023-04-03T02:46:28;0.60;99.90
21861;DHT22;11095;48.066;8.540;2023-04-03T02:48:54;0.50;99.90
21861;DHT22;11095;48.066;8.540;2023-04-03T02:51:19;0.60;99.90
21861;DHT22;11095;48.066;8.540;2023-04-03T02:53:45;0.60;99.90
21861;DHT22;11095;48.066;8.540;2023-04-03T02:56:11;0.60;99.90
21861;DHT22;11095;48.066;8.540;2023-04-03T02:58:36;0.60;99.90
21861;DHT22;11095;48.066;8.540;2023-04-03T03:01:02;0.50;99.90
21861;DHT22;11095;48.066;8.540;2023-04-03T03:03:28;0.60;99.90
21861;DHT22;11095;48.066;8.540;2023-04-03T03:06:04;0.60;99.90
21861;DHT22;11095;48.066;8.540;2023-04-03T03:08:30;0.60;99.90
21861;DHT22;11095;48.066;8.540;2023-04-03T03:10:55;0.50;99.90
21861;DHT22;11095;48.066;8.540;2023-04-03T03:13:21;0.50;99.90
21861;DHT22;11095;48.066;8.540;2023-04-03T03:15:47;0.40;99.90
21861;DHT22;11095;48.066;8.540;2023-04-03T03:18:12;0.40;99.90
21861;DHT22;11095;48.066;8.540;2023-04-03T03:20:38;0.40;99.90
21861;DHT22;11095;48.066;8.540;2023-04-03T03:23:03;0.40;99.90
21861;DHT22;11095;48.066;8.540;2023-04-03T03:25:29;0.40;99.90
21861;DHT22;11095;48.066;8.540;2023-04-03T03:27:55;0.40;99.90
21861;DHT22;11095;48.066;8.540;2023-04-03T03:30:20;0.40;99.90
21861;DHT22;11095;48.066;8.540;2023-04-03T03:32:46;0.30;99.90
21861;DHT22;11095;48.066;8.540;2023-04-03T03:35:12;0.30;99.90
21861;DHT22;11095;48.066;8.540;2023-04-03T03:37:37;0.30;99.90
21861;DHT22;11095;48.066;8.540;2023-04-03T03:40:03;0.30;99.90
21861;DHT22;11095;48.066;8.540;2023-04-03T03:42:29;0.30;99.90
21861;DHT22;11095;48.066;8.540;2023-04-03T03:44:55;0.30;99.90
21861;DHT22;11095;48.066;8.540;2023-04-03T03:47:20;0.30;99.90
21861;DHT22;11095;48.066;8.540;2023-04-03T03:49:46;0.30;99.90
21861;DHT22;11095;48.066;8.540;2023-04-03T03:52:12;0.30;99.90
21861;DHT22;11095;48.066;8.540;2023-04-03T03:54:37;0.20;99.90
21861;DHT22;11095;48.066;8.540;2023-04-03T03:57:03;0.30;99.90
21861;DHT22;11095;48.066;8.540;2023-04-03T03:59:29;0.30;99.90
21861;DHT22;11095;48.066;8.540;2023-04-03T04:01:54;0.30;99.90
21861;DHT22;11095;48.066;8.540;2023-04-03T04:04:20;0.30;99.90
21861;DHT22;11095;48.066;8.540;2023-04-03T04:06:46;0.30;99.90
21861;DHT22;11095;48.066;8.540;2023-04-03T04:09:12;0.30;99.90
21861;DHT22;11095;48.066;8.540;2023-04-03T04:11:37;0.30;99.90
21861;DHT22;11095;48.066;8.540;2023-04-03T04:14:05;0.30;99.90
21861;DHT22;11095;48.066;8.540;2023-04-03T04:16:31;0.30;99.90
21861;DHT22;11095;48.066;8.540;2023-04-03T04:18:57;0.30;99.90
21861;DHT22;11095;48.066;8.540;2023-04-03T04:21:22;0.30;99.90
21861;DHT22;11095;48.066;8.540;2023-04-03T04:23:48;0.30;99.90
21861;DHT22;11095;48.066;8.540;2023-04-03T04:26:14;0.20;99.90
21861;DHT22;11095;48.066;8.540;2023-04-03T04:28:39;0.20;99.90
21861;DHT22;11095;48.066;8.540;2023-04-03T04:31:05;0.30;99.90
21861;DHT22;11095;48.066;8.540;2023-04-03T04:33:30;0.30;99.90
21861;DHT22;11095;48.066;8.540;2023-04-03T04:35:56;0.20;99.90
21861;DHT22;11095;48.066;8.540;2023-04-03T04:38:22;0.30;99.90
21861;DHT22;11095;48.066;8.540;2023-04-03T04:40:48;0.30;99.90
21861;DHT22;11095;48.066;8.540;2023-04-03T04:43:14;0.30;99.90
21861;DHT22;11095;48.066;8.540;2023-04-03T04:45:41;0.30;99.90
21861;DHT22;11095;48.066;8.540;2023-04-03T04:48:07;0.30;99.90
21861;DHT22;11095;48.066;8.540;2023-04-03T04:50:32;0.30;99.90
21861;DHT22;11095;48.066;8.540;2023-04-03T04:52:58;0.30;99.90
21861;DHT22;11095;48.066;8.540;2023-04-03T04:55:24;0.30;99.90
21861;DHT22;11095;48.066;8.540;2023-04-03T04:57:50;0.30;99.90
21861;DHT22;11095;48.066;8.540;2023-04-03T05:00:16;0.30;99.90
21861;DHT22;11095;48.066;8.540;2023-04-03T05:02:42;0.30;99.90
21861;DHT22;11095;48.066;8.540;2023-04-03T05:05:08;0.30;99.90
21861;DHT22;11095;48.066;8.540;2023-04-03T05:07:33;0.30;99.90
21861;DHT22;11095;48.066;8.540;2023-04-03T05:10:01;0.30;99.90
21861;DHT22;11095;48.066;8.540;2023-04-03T05:12:28;0.30;99.90
21861;DHT22;11095;48.066;8.540;2023-04-03T05:14:54;0.30;99.90
21861;DHT22;11095;48.066;8.540;2023-04-03T05:17:20;0.30;99.90
21861;DHT22;11095;48.066;8.540;2023-04-03T05:19:48;0.30;99.90
21861;DHT22;11095;48.066;8.540;2023-04-03T05:22:13;0.30;99.90
21861;DHT22;11095;48.066;8.540;2023-04-03T05:24:40;0.30;99.90
21861;DHT22;11095;48.066;8.540;2023-04-03T05:27:06;0.30;99.90
21861;DHT22;11095;48.066;8.540;2023-04-03T05:29:31;0.40;99.90
21861;DHT22;11095;48.066;8.540;2023-04-03T05:31:57;0.40;99.90
21861;DHT22;11095;48.066;8.540;2023-04-03T05:34:23;0.30;99.90
21861;DHT22;11095;48.066;8.540;2023-04-03T05:36:48;0.40;99.90
21861;DHT22;11095;48.066;8.540;2023-04-03T05:39:14;0.30;99.90
21861;DHT22;11095;48.066;8.540;2023-04-03T05:41:40;0.30;99.90
21861;DHT22;11095;48.066;8.540;2023-04-03T05:44:05;0.30;99.90
21861;DHT22;11095;48.066;8.540;2023-04-03T05:46:31;0.30;99.90
21861;DHT22;11095;48.066;8.540;2023-04-03T05:48:57;0.30;99.90
21861;DHT22;11095;48.066;8.540;2023-04-03T05:51:25;0.30;99.90
21861;DHT22;11095;48.066;8.540;2023-04-03T05:53:59;0.30;99.90
21861;DHT22;11095;48.066;8.540;2023-04-03T05:56:28;0.30;99.90
21861;DHT22;11095;48.066;8.540;2023-04-03T05:58:53;0.30;99.90
21861;DHT22;11095;48.066;8.540;2023-04-03T06:01:20;0.30;99.90
21861;DHT22;11095;48.066;8.540;2023-04-03T06:03:46;0.20;99.90
21861;DHT22;11095;48.066;8.540;2023-04-03T06:06:13;0.20;99.90
21861;DHT22;11095;48.066;8.540;2023-04-03T06:08:39;0.20;99.90
21861;DHT22;11095;48.066;8.540;2023-04-03T06:11:05;0.20;99.90
21861;DHT22;11095;48.066;8.540;2023-04-03T06:13:31;0.20;99.90
21861;DHT22;11095;48.066;8.540;2023-04-03T06:15:57;0.20;99.90
21861;DHT22;11095;48.066;8.540;2023-04-03T06:18:23;0.20;99.90
21861;DHT22;11095;48.066;8.540;2023-04-03T06:20:48;0.20;99.90
21861;DHT22;11095;48.066;8.540;2023-04-03T06:23:14;0.20;99.90
21861;DHT22;11095;48.066;8.540;2023-04-03T06:25:39;0.20;99.90
21861;DHT22;11095;48.066;8.540;2023-04-03T06:28:06;0.20;99.90
21861;DHT22;11095;48.066;8.540;2023-04-03T06:30:34;0.20;99.90
21861;DHT22;11095;48.066;8.540;2023-04-03T06:33:00;0.30;99.90
21861;DHT22;11095;48.066;8.540;2023-04-03T06:35:26;0.30;99.90
21861;DHT22;11095;48.066;8.540;2023-04-03T06:37:53;0.30;99.90
21861;DHT22;11095;48.066;8.540;2023-04-03T06:40:22;0.30;99.90
21861;DHT22;11095;48.066;8.540;2023-04-03T06:42:48;0.40;99.90
21861;DHT22;11095;48.066;8.540;2023-04-03T06:45:14;0.50;99.90
21861;DHT22;11095;48.066;8.540;2023-04-03T06:47:40;0.50;99.90
21861;DHT22;11095;48.066;8.540;2023-04-03T06:50:06;0.50;99.90
21861;DHT22;11095;48.066;8.540;2023-04-03T06:52:32;0.40;99.90
21861;DHT22;11095;48.066;8.540;2023-04-03T06:54:58;0.40;99.90
21861;DHT22;11095;48.066;8.540;2023-04-03T06:57:25;0.50;99.90
21861;DHT22;11095;48.066;8.540;2023-04-03T06:59:50;0.50;99.90
21861;DHT22;11095;48.066;8.540;2023-04-03T07:02:17;0.50;99.90
21861;DHT22;11095;48.066;8.540;2023-04-03T07:04:42;0.50;99.90
21861;DHT22;11095;48.066;8.540;2023-04-03T07:07:10;0.50;99.90
21861;DHT22;11095;48.066;8.540;2023-04-03T07:09:37;0.40;99.90
21861;DHT22;11095;48.066;8.540;2023-04-03T07:12:02;0.40;99.90
21861;DHT22;11095;48.066;8.540;2023-04-03T07:14:28;0.30;99.90
21861;DHT22;11095;48.066;8.540;2023-04-03T07:16:54;0.30;99.90
21861;DHT22;11095;48.066;8.540;2023-04-03T07:19:20;0.30;99.90
21861;DHT22;11095;48.066;8.540;2023-04-03T07:21:46;0.30;99.90
21861;DHT22;11095;48.066;8.540;2023-04-03T07:24:12;0.40;99.90
21861;DHT22;11095;48.066;8.540;2023-04-03T07:26:38;0.30;99.90
21861;DHT22;11095;48.066;8.540;2023-04-03T07:29:04;0.30;99.90
21861;DHT22;11095;48.066;8.540;2023-04-03T07:31:30;0.40;99.90
21861;DHT22;11095;48.066;8.540;2023-04-03T07:33:55;0.40;99.90
21861;DHT22;11095;48.066;8.540;2023-04-03T07:36:22;0.40;99.90
21861;DHT22;11095;48.066;8.540;2023-04-03T07:38:47;0.40;99.90
21861;DHT22;11095;48.066;8.540;2023-04-03T07:41:18;0.40;99.90
21861;DHT22;11095;48.066;8.540;2023-04-03T07:43:45;0.40;99.90
21861;DHT22;11095;48.066;8.540;2023-04-03T07:46:12;0.50;99.90
21861;DHT22;11095;48.066;8.540;2023-04-03T07:48:38;0.50;99.90
21861;DHT22;11095;48.066;8.540;2023-04-03T07:51:04;0.50;99.90
21861;DHT22;11095;48.066;8.540;2023-04-03T07:53:31;0.60;99.90
21861;DHT22;11095;48.066;8.540;2023-04-03T07:55:59;0.80;99.90
21861;DHT22;11095;48.066;8.540;2023-04-03T07:58:25;1.00;99.90
21861;DHT22;11095;48.066;8.540;2023-04-03T08:00:51;1.10;99.90
21861;DHT22;11095;48.066;8.540;2023-04-03T08:03:17;1.30;99.90
21861;DHT22;11095;48.066;8.540;2023-04-03T08:05:47;1.30;99.90
21861;DHT22;11095;48.066;8.540;2023-04-03T08:08:15;1.30;99.90
21861;DHT22;11095;48.066;8.540;2023-04-03T08:10:41;1.50;99.90
21861;DHT22;11095;48.066;8.540;2023-04-03T08:13:08;1.50;99.90
21861;DHT22;11095;48.066;8.540;2023-04-03T08:15:34;1.50;99.90
21861;DHT22;11095;48.066;8.540;2023-04-03T08:18:00;1.40;99.90
21861;DHT22;11095;48.066;8.540;2023-04-03T08:20:26;1.40;99.90
21861;DHT22;11095;48.066;8.540;2023-04-03T08:22:52;1.40;99.90
21861;DHT22;11095;48.066;8.540;2023-04-03T08:25:18;1.40;99.90
21861;DHT22;11095;48.066;8.540;2023-04-03T08:27:44;1.20;99.90
21861;DHT22;11095;48.066;8.540;2023-04-03T08:30:10;1.20;99.90
21861;DHT22;11095;48.066;8.540;2023-04-03T08:32:36;1.30;99.90
21861;DHT22;11095;48.066;8.540;2023-04-03T08:35:05;1.20;99.90
21861;DHT22;11095;48.066;8.540;2023-04-03T08:37:31;1.30;99.90
21861;DHT22;11095;48.066;8.540;2023-04-03T08:40:00;1.40;99.90
21861;DHT22;11095;48.066;8.540;2023-04-03T08:45:44;1.30;99.90
21861;DHT22;11095;48.066;8.540;2023-04-03T08:48:21;1.30;99.90
21861;DHT22;11095;48.066;8.540;2023-04-03T08:50:58;1.40;99.90
21861;DHT22;11095;48.066;8.540;2023-04-03T08:53:30;1.50;99.90
21861;DHT22;11095;48.066;8.540;2023-04-03T08:55:58;1.50;99.90
21861;DHT22;11095;48.066;8.540;2023-04-03T08:59:19;1.50;99.90
21861;DHT22;11095;48.066;8.540;2023-04-03T09:01:33;1.60;99.90
21861;DHT22;11095;48.066;8.540;2023-04-03T09:04:05;1.60;99.90
21861;DHT22;11095;48.066;8.540;2023-04-03T09:06:36;1.40;99.90
21861;DHT22;11095;48.066;8.540;2023-04-03T09:22:22;1.40;99.90
21861;DHT22;11095;48.066;8.540;2023-04-03T09:25:10;1.60;99.90
21861;DHT22;11095;48.066;8.540;2023-04-03T09:27:38;1.80;99.90
21861;DHT22;11095;48.066;8.540;2023-04-03T09:30:04;1.70;99.90
21861;DHT22;11095;48.066;8.540;2023-04-03T09:32:34;1.80;99.90
21861;DHT22;11095;48.066;8.540;2023-04-03T09:35:15;1.80;99.90
21861;DHT22;11095;48.066;8.540;2023-04-03T09:37:46;1.70;99.90
21861;DHT22;11095;48.066;8.540;2023-04-03T09:40:31;1.70;99.90
21861;DHT22;11095;48.066;8.540;2023-04-03T09:45:41;1.70;99.90
21861;DHT22;11095;48.066;8.540;2023-04-03T09:50:59;1.70;99.90
21861;DHT22;11095;48.066;8.540;2023-04-03T09:53:29;1.80;99.90
21861;DHT22;11095;48.066;8.540;2023-04-03T09:55:55;1.80;99.90
21861;DHT22;11095;48.066;8.540;2023-04-03T09:58:40;1.80;99.90
21861;DHT22;11095;48.066;8.540;2023-04-03T10:04:38;2.00;99.90
21861;DHT22;11095;48.066;8.540;2023-04-03T10:07:03;1.80;99.90
21861;DHT22;11095;48.066;8.540;2023-04-03T10:09:59;1.80;99.90
21861;DHT22;11095;48.066;8.540;2023-04-03T10:12:25;1.80;99.90
21861;DHT22;11095;48.066;8.540;2023-04-03T10:14:54;2.00;99.90
21861;DHT22;11095;48.066;8.540;2023-04-03T10:28:53;2.10;99.90
21861;DHT22;11095;48.066;8.540;2023-04-03T10:34:00;2.20;99.90
21861;DHT22;11095;48.066;8.540;2023-04-03T10:36:54;2.30;99.90
21861;DHT22;11095;48.066;8.540;2023-04-03T10:39:36;2.10;99.90
21861;DHT22;11095;48.066;8.540;2023-04-03T10:59:15;2.30;99.90
21861;DHT22;11095;48.066;8.540;2023-04-03T11:01:46;2.20;99.90
21861;DHT22;11095;48.066;8.540;2023-04-03T11:04:14;2.30;99.90
21861;DHT22;11095;48.066;8.540;2023-04-03T11:06:50;2.20;99.90
21861;DHT22;11095;48.066;8.540;2023-04-03T11:09:35;2.40;99.90
21861;DHT22;11095;48.066;8.540;2023-04-03T11:12:27;2.60;99.90
21861;DHT22;11095;48.066;8.540;2023-04-03T11:14:56;2.70;99.90
21861;DHT22;11095;48.066;8.540;2023-04-03T11:17:33;2.80;99.90
21861;DHT22;11095;48.066;8.540;2023-04-03T11:20:16;2.50;99.90
21861;DHT22;11095;48.066;8.540;2023-04-03T11:22:47;2.30;99.90
21861;DHT22;11095;48.066;8.540;2023-04-03T11:25:19;2.30;99.90
21861;DHT22;11095;48.066;8.540;2023-04-03T11:28:01;2.50;99.90
21861;DHT22;11095;48.066;8.540;2023-04-03T11:30:32;2.50;99.90
21861;DHT22;11095;48.066;8.540;2023-04-03T11:36:12;2.60;99.90
21861;DHT22;11095;48.066;8.540;2023-04-03T11:38:43;2.70;99.90
21861;DHT22;11095;48.066;8.540;2023-04-03T11:41:10;2.90;99.90
21861;DHT22;11095;48.066;8.540;2023-04-03T11:43:42;2.70;99.90
21861;DHT22;11095;48.066;8.540;2023-04-03T11:46:20;2.90;99.90
21861;DHT22;11095;48.066;8.540;2023-04-03T11:48:48;2.90;99.90
21861;DHT22;11095;48.066;8.540;2023-04-03T11:53:43;3.10;99.90
21861;DHT22;11095;48.066;8.540;2023-04-03T12:01:48;3.20;99.90
21861;DHT22;11095;48.066;8.540;2023-04-03T12:04:15;3.10;99.90
21861;DHT22;11095;48.066;8.540;2023-04-03T12:09:54;3.10;99.90
21861;DHT22;11095;48.066;8.540;2023-04-03T12:12:26;3.20;99.90
21861;DHT22;11095;48.066;8.540;2023-04-03T12:14:53;3.00;99.90
21861;DHT22;11095;48.066;8.540;2023-04-03T12:17:27;2.90;99.90
21861;DHT22;11095;48.066;8.540;2023-04-03T12:19:55;2.90;99.90
21861;DHT22;11095;48.066;8.540;2023-04-03T12:22:22;2.90;99.90
21861;DHT22;11095;48.066;8.540;2023-04-03T12:24:52;3.00;99.90
21861;DHT22;11095;48.066;8.540;2023-04-03T12:27:25;2.90;99.90
21861;DHT22;11095;48.066;8.540;2023-04-03T12:35:10;3.10;99.90
21861;DHT22;11095;48.066;8.540;2023-04-03T12:43:32;3.10;99.90
21861;DHT22;11095;48.066;8.540;2023-04-03T12:51:37;3.10;99.90
21861;DHT22;11095;48.066;8.540;2023-04-03T12:56:40;3.00;99.90
21861;DHT22;11095;48.066;8.540;2023-04-03T12:59:20;2.80;99.90
21861;DHT22;11095;48.066;8.540;2023-04-03T13:02:00;2.90;99.90
21861;DHT22;11095;48.066;8.540;2023-04-03T13:04:31;2.80;99.90
21861;DHT22;11095;48.066;8.540;2023-04-03T13:06:57;2.90;99.90
21861;DHT22;11095;48.066;8.540;2023-04-03T13:09:26;2.90;99.90
21861;DHT22;11095;48.066;8.540;2023-04-03T13:14:25;2.90;99.90
21861;DHT22;11095;48.066;8.540;2023-04-03T13:17:00;3.10;99.90
21861;DHT22;11095;48.066;8.540;2023-04-03T13:19:28;3.30;99.90
21861;DHT22;11095;48.066;8.540;2023-04-03T13:22:01;3.30;99.90
21861;DHT22;11095;48.066;8.540;2023-04-03T13:24:29;3.30;99.90
21861;DHT22;11095;48.066;8.540;2023-04-03T13:26:56;3.30;99.90
21861;DHT22;11095;48.066;8.540;2023-04-03T13:29:32;3.30;99.90
21861;DHT22;11095;48.066;8.540;2023-04-03T13:32:00;3.10;99.90
21861;DHT22;11095;48.066;8.540;2023-04-03T13:34:28;3.10;99.90
21861;DHT22;11095;48.066;8.540;2023-04-03T13:36:57;3.10;99.90
21861;DHT22;11095;48.066;8.540;2023-04-03T13:39:35;3.20;99.90
21861;DHT22;11095;48.066;8.540;2023-04-03T13:42:28;3.10;99.90
21861;DHT22;11095;48.066;8.540;2023-04-03T13:47:47;2.90;99.90
21861;DHT22;11095;48.066;8.540;2023-04-03T13:50:22;2.90;99.90
21861;DHT22;11095;48.066;8.540;2023-04-03T13:52:55;2.90;99.90
21861;DHT22;11095;48.066;8.540;2023-04-03T13:55:30;2.90;99.90
21861;DHT22;11095;48.066;8.540;2023-04-03T13:57:59;3.00;99.90
21861;DHT22;11095;48.066;8.540;2023-04-03T14:00:48;3.00;99.90
21861;DHT22;11095;48.066;8.540;2023-04-03T14:05:50;3.00;99.90
21861;DHT22;11095;48.066;8.540;2023-04-03T14:08:17;2.90;99.90
21861;DHT22;11095;48.066;8.540;2023-04-03T14:10:43;2.90;99.90
21861;DHT22;11095;48.066;8.540;2023-04-03T14:13:14;2.90;99.90
21861;DHT22;11095;48.066;8.540;2023-04-03T14:15:41;2.90;99.90
21861;DHT22;11095;48.066;8.540;2023-04-03T14:18:11;2.80;99.90
21861;DHT22;11095;48.066;8.540;2023-04-03T14:20:37;2.80;99.90
21861;DHT22;11095;48.066;8.540;2023-04-03T14:23:02;2.80;99.90
21861;DHT22;11095;48.066;8.540;2023-04-03T14:25:28;2.90;99.90
21861;DHT22;11095;48.066;8.540;2023-04-03T14:27:55;3.00;99.90
21861;DHT22;11095;48.066;8.540;2023-04-03T14:30:30;3.00;99.90
21861;DHT22;11095;48.066;8.540;2023-04-03T14:32:56;3.10;99.90
21861;DHT22;11095;48.066;8.540;2023-04-03T14:35:23;3.10;99.90
21861;DHT22;11095;48.066;8.540;2023-04-03T14:37:49;3.00;99.90
21861;DHT22;11095;48.066;8.540;2023-04-03T14:40:19;2.90;99.90
21861;DHT22;11095;48.066;8.540;2023-04-03T14:42:45;2.90;99.90
21861;DHT22;11095;48.066;8.540;2023-04-03T14:45:13;2.80;99.90
21861;DHT22;11095;48.066;8.540;2023-04-03T14:47:45;2.80;99.90
21861;DHT22;11095;48.066;8.540;2023-04-03T14:50:15;2.90;99.90
21861;DHT22;11095;48.066;8.540;2023-04-03T14:52:42;2.90;99.90
21861;DHT22;11095;48.066;8.540;2023-04-03T14:55:07;2.80;99.90
21861;DHT22;11095;48.066;8.540;2023-04-03T14:57:34;2.80;99.90
21861;DHT22;11095;48.066;8.540;2023-04-03T15:00:00;2.90;99.90
21861;DHT22;11095;48.066;8.540;2023-04-03T15:02:32;2.80;99.90
21861;DHT22;11095;48.066;8.540;2023-04-03T15:04:59;2.80;99.90
21861;DHT22;11095;48.066;8.540;2023-04-03T15:07:28;2.70;99.90
21861;DHT22;11095;48.066;8.540;2023-04-03T15:09:55;2.60;99.90
21861;DHT22;11095;48.066;8.540;2023-04-03T15:12:24;2.60;99.90
21861;DHT22;11095;48.066;8.540;2023-04-03T15:14:52;2.60;99.90
21861;DHT22;11095;48.066;8.540;2023-04-03T15:17:21;2.60;99.90
21861;DHT22;11095;48.066;8.540;2023-04-03T15:19:47;2.70;99.90
21861;DHT22;11095;48.066;8.540;2023-04-03T15:22:19;2.70;99.90
21861;DHT22;11095;48.066;8.540;2023-04-03T15:24:45;2.70;99.90
21861;DHT22;11095;48.066;8.540;2023-04-03T15:27:11;2.70;99.90
21861;DHT22;11095;48.066;8.540;2023-04-03T15:29:38;2.70;99.90
21861;DHT22;11095;48.066;8.540;2023-04-03T15:32:05;2.70;99.90
21861;DHT22;11095;48.066;8.540;2023-04-03T15:34:31;2.70;99.90
21861;DHT22;11095;48.066;8.540;2023-04-03T15:36:57;2.60;99.90
21861;DHT22;11095;48.066;8.540;2023-04-03T15:39:24;2.60;99.90
21861;DHT22;11095;48.066;8.540;2023-04-03T15:41:49;2.60;99.90
21861;DHT22;11095;48.066;8.540;2023-04-03T15:44:17;2.60;99.90
21861;DHT22;11095;48.066;8.540;2023-04-03T15:46:44;2.60;99.90
21861;DHT22;11095;48.066;8.540;2023-04-03T15:49:10;2.60;99.90
21861;DHT22;11095;48.066;8.540;2023-04-03T15:51:36;2.50;99.90
21861;DHT22;11095;48.066;8.540;2023-04-03T15:54:01;2.50;99.90
21861;DHT22;11095;48.066;8.540;2023-04-03T15:56:27;2.50;99.90
21861;DHT22;11095;48.066;8.540;2023-04-03T15:58:52;2.50;99.90
21861;DHT22;11095;48.066;8.540;2023-04-03T16:01:18;2.50;99.90
21861;DHT22;11095;48.066;8.540;2023-04-03T16:03:44;2.50;99.90
21861;DHT22;11095;48.066;8.540;2023-04-03T16:06:17;2.50;99.90
21861;DHT22;11095;48.066;8.540;2023-04-03T16:08:44;2.60;99.90
21861;DHT22;11095;48.066;8.540;2023-04-03T16:11:11;2.60;99.90
21861;DHT22;11095;48.066;8.540;2023-04-03T16:13:37;2.60;99.90
21861;DHT22;11095;48.066;8.540;2023-04-03T16:16:03;2.60;99.90
21861;DHT22;11095;48.066;8.540;2023-04-03T16:18:29;2.60;99.90
21861;DHT22;11095;48.066;8.540;2023-04-03T16:20:55;2.60;99.90
21861;DHT22;11095;48.066;8.540;2023-04-03T16:23:21;2.60;99.90
21861;DHT22;11095;48.066;8.540;2023-04-03T16:25:47;2.60;99.90
21861;DHT22;11095;48.066;8.540;2023-04-03T16:28:14;2.60;99.90
21861;DHT22;11095;48.066;8.540;2023-04-03T16:30:46;2.50;99.90
21861;DHT22;11095;48.066;8.540;2023-04-03T16:33:13;2.50;99.90
21861;DHT22;11095;48.066;8.540;2023-04-03T16:35:39;2.50;99.90
21861;DHT22;11095;48.066;8.540;2023-04-03T16:38:05;2.50;99.90
21861;DHT22;11095;48.066;8.540;2023-04-03T16:40:31;2.50;99.90
21861;DHT22;11095;48.066;8.540;2023-04-03T16:42:59;2.50;99.90
21861;DHT22;11095;48.066;8.540;2023-04-03T16:45:25;2.50;99.90
21861;DHT22;11095;48.066;8.540;2023-04-03T16:47:50;2.40;99.90
21861;DHT22;11095;48.066;8.540;2023-04-03T16:50:16;2.40;99.90
21861;DHT22;11095;48.066;8.540;2023-04-03T16:52:41;2.40;99.90
21861;DHT22;11095;48.066;8.540;2023-04-03T16:55:07;2.30;99.90
21861;DHT22;11095;48.066;8.540;2023-04-03T16:57:33;2.30;99.90
21861;DHT22;11095;48.066;8.540;2023-04-03T16:59:59;2.30;99.90
21861;DHT22;11095;48.066;8.540;2023-04-03T17:02:24;2.30;99.90
21861;DHT22;11095;48.066;8.540;2023-04-03T17:04:51;2.40;99.90
21861;DHT22;11095;48.066;8.540;2023-04-03T17:07:21;2.30;99.90
21861;DHT22;11095;48.066;8.540;2023-04-03T17:09:47;2.30;99.90
21861;DHT22;11095;48.066;8.540;2023-04-03T17:12:13;2.30;99.90
21861;DHT22;11095;48.066;8.540;2023-04-03T17:14:39;2.30;99.90
21861;DHT22;11095;48.066;8.540;2023-04-03T17:17:06;2.30;99.90
21861;DHT22;11095;48.066;8.540;2023-04-03T17:19:34;2.30;99.90
21861;DHT22;11095;48.066;8.540;2023-04-03T17:22:00;2.30;99.90
21861;DHT22;11095;48.066;8.540;2023-04-03T17:24:26;2.30;99.90
21861;DHT22;11095;48.066;8.540;2023-04-03T17:26:52;2.20;99.90
21861;DHT22;11095;48.066;8.540;2023-04-03T17:29:18;2.20;99.90
21861;DHT22;11095;48.066;8.540;2023-04-03T17:31:44;2.20;99.90
21861;DHT22;11095;48.066;8.540;2023-04-03T17:34:10;2.20;99.90
21861;DHT22;11095;48.066;8.540;2023-04-03T17:36:39;2.20;99.90